createdAt,value
2023-01-23T00:01:29.138Z,103384.16
2023-01-23T00:03:57.466Z,103394.28
2023-01-23T00:06:25.364Z,103392.28
2023-01-23T00:08:52.309Z,103391.59
2023-01-23T00:11:27.095Z,103386.44
2023-01-23T00:13:54.287Z,103391.34
2023-01-23T00:16:25.092Z,103390.78
2023-01-23T00:18:52.933Z,103401.78
2023-01-23T00:21:23.980Z,103397.19
2023-01-23T00:23:58.965Z,103416.16
2023-01-23T00:26:29.132Z,103414.56
2023-01-23T00:28:56.439Z,103421.75
2023-01-23T00:31:26.687Z,103416.47
2023-01-23T00:34:03.234Z,103425.78
2023-01-23T00:36:35.009Z,103420.06
2023-01-23T00:39:09.209Z,103419.38
2023-01-23T00:41:36.110Z,103424.63
2023-01-23T00:44:04.511Z,103426.66
2023-01-23T00:46:31.467Z,103420.59
2023-01-23T00:48:58.417Z,103425.06
2023-01-23T00:51:25.746Z,103417.41
2023-01-23T00:53:53.203Z,103414.31
2023-01-23T00:56:20.118Z,103424.88
2023-01-23T00:58:47.368Z,103423.25
2023-01-23T01:01:16.091Z,103425.97
2023-01-23T01:03:44.543Z,103427.75
2023-01-23T01:06:12.552Z,103428.69
2023-01-23T01:08:39.561Z,103424.41
2023-01-23T01:11:06.947Z,103433.59
2023-01-23T01:13:34.184Z,103442.72
2023-01-23T01:16:02.118Z,103443.50
2023-01-23T01:18:29.908Z,103446.97
2023-01-23T01:20:58.453Z,103441.94
2023-01-23T01:23:26.650Z,103444.72
2023-01-23T01:25:54.707Z,103447.31
2023-01-23T01:28:21.590Z,103448.31
2023-01-23T01:30:48.539Z,103450.22
2023-01-23T01:33:15.480Z,103457.28
2023-01-23T01:35:42.457Z,103458.19
2023-01-23T01:38:09.553Z,103455.41
2023-01-23T01:40:37.621Z,103454.50
2023-01-23T01:43:18.548Z,103459.66
2023-01-23T01:46:29.088Z,103455.06
2023-01-23T01:49:09.586Z,103460.03
2023-01-23T01:51:52.327Z,103461.78
2023-01-23T01:54:44.293Z,103461.78
2023-01-23T01:57:27.284Z,103465.28
2023-01-23T02:00:15.786Z,103465.41
2023-01-23T02:02:55.779Z,103474.25
2023-01-23T02:05:27.846Z,103489.19
2023-01-23T02:08:27.589Z,103477.28
2023-01-23T02:10:54.690Z,103473.91
2023-01-23T02:13:30.463Z,103480.06
2023-01-23T02:16:00.298Z,103486.25
2023-01-23T02:18:29.793Z,103487.03
2023-01-23T02:21:01.020Z,103483.22
2023-01-23T02:24:01.783Z,103473.47
2023-01-23T02:26:38.210Z,103487.06
2023-01-23T02:29:06.463Z,103474.50
2023-01-23T02:31:44.282Z,103489.44
2023-01-23T02:34:13.885Z,103498.50
2023-01-23T02:36:45.630Z,103494.03
2023-01-23T02:39:16.815Z,103502.34
2023-01-23T02:41:50.391Z,103498.63
2023-01-23T02:44:29.143Z,103501.34
2023-01-23T02:47:08.011Z,103498.56
2023-01-23T02:49:35.223Z,103503.50
2023-01-23T02:52:06.056Z,103508.19
2023-01-23T02:57:15.930Z,103496.50
2023-01-23T03:00:01.420Z,103494.28
2023-01-23T03:02:28.819Z,103491.81
2023-01-23T03:04:55.741Z,103489.31
2023-01-23T03:07:22.699Z,103494.41
2023-01-23T03:09:49.879Z,103498.63
2023-01-23T03:12:16.817Z,103496.06
2023-01-23T03:14:43.680Z,103493.47
2023-01-23T03:17:14.723Z,103496.84
2023-01-23T03:19:42.033Z,103496.63
2023-01-23T03:22:08.960Z,103491.34
2023-01-23T03:24:35.850Z,103491.25
2023-01-23T03:27:03.671Z,103487.19
2023-01-23T03:29:55.713Z,103487.31
2023-01-23T03:32:22.998Z,103492.50
2023-01-23T03:34:49.920Z,103490.69
2023-01-23T03:37:19.572Z,103493.25
2023-01-23T03:40:05.613Z,103491.47
2023-01-23T03:42:36.181Z,103495.41
2023-01-23T03:45:05.365Z,103500.31
2023-01-23T03:47:36.267Z,103499.22
2023-01-23T03:50:03.499Z,103497.44
2023-01-23T03:52:37.858Z,103503.50
2023-01-23T03:55:05.667Z,103500.91
2023-01-23T03:57:33.048Z,103498.53
2023-01-23T03:59:59.919Z,103511.31
2023-01-23T04:02:41.121Z,103506.97
2023-01-23T04:05:10.637Z,103499.78
2023-01-23T04:07:38.490Z,103504.94
2023-01-23T04:10:05.593Z,103509.19
2023-01-23T04:12:32.512Z,103509.13
2023-01-23T04:15:01.032Z,103513.34
2023-01-23T04:17:28.623Z,103515.94
2023-01-23T04:19:55.499Z,103520.88
2023-01-23T04:22:22.446Z,103521.53
2023-01-23T04:24:50.810Z,103530.09
2023-01-23T04:27:17.780Z,103530.84
2023-01-23T04:29:47.784Z,103540.28
2023-01-23T04:32:14.854Z,103545.66
2023-01-23T04:34:45.783Z,103542.78
2023-01-23T04:37:12.864Z,103544.75
2023-01-23T04:39:40.549Z,103547.56
2023-01-23T04:42:07.485Z,103547.44
2023-01-23T04:44:48.207Z,103545.09
2023-01-23T04:47:49.833Z,103548.94
2023-01-23T04:50:17.507Z,103538.13
2023-01-23T04:52:46.423Z,103550.03
2023-01-23T04:55:13.926Z,103549.03
2023-01-23T04:57:42.856Z,103540.50
2023-01-23T05:00:18.673Z,103547.47
2023-01-23T05:02:48.313Z,103552.84
2023-01-23T05:05:18.019Z,103548.34
2023-01-23T05:07:45.183Z,103549.38
2023-01-23T05:10:16.033Z,103551.72
2023-01-23T05:12:43.790Z,103558.44
2023-01-23T05:15:11.703Z,103561.16
2023-01-23T05:17:41.183Z,103558.59
2023-01-23T05:20:11.524Z,103568.09
2023-01-23T05:22:52.065Z,103567.88
2023-01-23T05:25:27.436Z,103567.31
2023-01-23T05:27:56.310Z,103567.09
2023-01-23T05:30:24.327Z,103572.25
2023-01-23T05:32:57.039Z,103567.19
2023-01-23T05:35:24.487Z,103567.19
2023-01-23T05:37:53.446Z,103573.72
2023-01-23T05:40:23.904Z,103573.81
2023-01-23T05:43:22.890Z,103576.50
2023-01-23T05:46:13.043Z,103575.41
2023-01-23T05:48:51.993Z,103578.53
2023-01-23T05:51:20.794Z,103562.25
2023-01-23T05:53:48.266Z,103570.06
2023-01-23T05:56:16.891Z,103586.25
2023-01-23T05:59:05.310Z,103588.97
2023-01-23T06:01:50.762Z,103593.19
2023-01-23T06:04:36.013Z,103585.16
2023-01-23T06:07:20.753Z,103595.13
2023-01-23T06:09:52.593Z,103591.88
2023-01-23T06:12:20.091Z,103592.88
2023-01-23T06:14:48.109Z,103595.47
2023-01-23T06:17:15.642Z,103590.31
2023-01-23T06:19:43.183Z,103586.38
2023-01-23T06:22:11.047Z,103597.16
2023-01-23T06:24:56.060Z,103596.13
2023-01-23T06:27:22.989Z,103602.84
2023-01-23T06:29:51.833Z,103605.88
2023-01-23T06:32:18.770Z,103619.22
2023-01-23T06:34:45.813Z,103617.31
2023-01-23T06:37:12.724Z,103622.91
2023-01-23T06:39:43.169Z,103627.69
2023-01-23T06:42:11.269Z,103622.84
2023-01-23T06:44:43.381Z,103623.97
2023-01-23T06:47:11.343Z,103623.31
2023-01-23T06:49:39.404Z,103628.59
2023-01-23T06:52:06.716Z,103627.69
2023-01-23T06:54:33.701Z,103627.34
2023-01-23T06:57:04.565Z,103640.91
2023-01-23T06:59:32.382Z,103631.38
2023-01-23T07:02:00.550Z,103633.16
2023-01-23T07:04:39.574Z,103637.66
2023-01-23T07:07:06.609Z,103641.25
2023-01-23T07:09:34.296Z,103644.06
2023-01-23T07:12:09.729Z,103655.63
2023-01-23T07:14:36.673Z,103635.53
2023-01-23T07:17:03.803Z,103656.78
2023-01-23T07:19:31.688Z,103648.94
2023-01-23T07:22:01.185Z,103649.66
2023-01-23T07:24:29.992Z,103652.56
2023-01-23T07:26:56.889Z,103653.13
2023-01-23T07:29:23.958Z,103657.88
2023-01-23T07:31:50.910Z,103659.81
2023-01-23T07:34:17.841Z,103668.78
2023-01-23T07:36:44.756Z,103671.38
2023-01-23T07:39:11.658Z,103671.38
2023-01-23T07:41:40.257Z,103681.56
2023-01-23T07:44:17.499Z,103686.38
2023-01-23T07:46:45.719Z,103689.09
2023-01-23T07:49:13.358Z,103689.97
2023-01-23T07:51:40.804Z,103689.97
2023-01-23T07:54:07.879Z,103688.28
2023-01-23T07:56:34.841Z,103684.94
2023-01-23T07:59:01.775Z,103685.72
2023-01-23T08:01:28.680Z,103689.09
2023-01-23T08:03:55.630Z,103692.09
2023-01-23T08:06:22.683Z,103700.88
2023-01-23T08:08:49.901Z,103698.28
2023-01-23T08:11:17.039Z,103695.06
2023-01-23T08:13:43.940Z,103685.84
2023-01-23T08:16:13.426Z,103696.53
2023-01-23T08:18:40.607Z,103695.19
2023-01-23T08:21:07.498Z,103695.56
2023-01-23T08:23:35.157Z,103696.53
2023-01-23T08:26:05.818Z,103703.53
2023-01-23T08:28:33.135Z,103704.94
2023-01-23T08:31:10.398Z,103713.03
2023-01-23T08:33:38.777Z,103711.13
2023-01-23T08:36:09.515Z,103711.88
2023-01-23T08:38:37.953Z,103713.44
2023-01-23T08:41:05.929Z,103704.56
2023-01-23T08:43:35.858Z,103702.66
2023-01-23T08:46:02.770Z,103718.72
2023-01-23T08:48:29.728Z,103718.72
2023-01-23T08:51:08.357Z,103716.28
2023-01-23T08:53:35.844Z,103719.63
2023-01-23T08:56:17.391Z,103723.22
2023-01-23T08:58:45.574Z,103723.47
2023-01-23T09:01:24.615Z,103735.59
2023-01-23T09:03:51.817Z,103721.53
2023-01-23T09:06:20.935Z,103730.63
2023-01-23T09:08:48.475Z,103720.53
2023-01-23T09:11:15.929Z,103718.19
2023-01-23T09:13:42.969Z,103727.66
2023-01-23T09:16:10.258Z,103732.28
2023-01-23T09:18:37.828Z,103734.19
2023-01-23T09:21:11.920Z,103740.47
2023-01-23T09:23:39.241Z,103738.69
2023-01-23T09:26:11.663Z,103746.78
2023-01-23T09:28:42.438Z,103745.66
2023-01-23T09:31:13.762Z,103760.47
2023-01-23T09:33:41.205Z,103755.22
2023-01-23T09:36:09.110Z,103747.78
2023-01-23T09:38:36.594Z,103756.03
2023-01-23T09:41:20.528Z,103761.41
2023-01-23T09:43:57.859Z,103757.25
2023-01-23T09:46:50.600Z,103753.66
2023-01-23T09:49:37.925Z,103747.63
2023-01-23T09:52:29.278Z,103759.09
2023-01-23T09:55:19.142Z,103759.97
2023-01-23T09:57:55.728Z,103760.34
2023-01-23T10:00:32.060Z,103769.56
2023-01-23T10:03:02.806Z,103770.44
2023-01-23T10:06:04.885Z,103764.69
2023-01-23T10:09:04.961Z,103770.91
2023-01-23T10:12:22.201Z,103770.66
2023-01-23T10:15:27.418Z,103763.25
2023-01-23T10:18:39.513Z,103756.16
2023-01-23T10:21:39.334Z,103752.13
2023-01-23T10:24:28.814Z,103759.31
2023-01-23T10:27:18.814Z,103755.28
2023-01-23T10:30:19.661Z,103756.41
2023-01-23T10:32:52.010Z,103765.06
2023-01-23T10:35:24.574Z,103763.50
2023-01-23T10:38:36.215Z,103766.66
2023-01-23T10:41:15.817Z,103761.59
2023-01-23T10:43:53.692Z,103768.56
2023-01-23T10:46:29.163Z,103761.03
2023-01-23T10:48:56.665Z,103757.53
2023-01-23T10:51:37.099Z,103764.53
2023-01-23T10:54:31.426Z,103768.69
2023-01-23T10:57:30.384Z,103760.47
2023-01-23T11:00:24.903Z,103760.72
2023-01-23T11:02:51.864Z,103772.28
2023-01-23T11:05:52.181Z,103772.72
2023-01-23T11:08:39.363Z,103776.47
2023-01-23T11:11:15.343Z,103766.44
2023-01-23T11:13:44.834Z,103764.19
2023-01-23T11:16:21.382Z,103771.06
2023-01-23T11:19:05.228Z,103768.94
2023-01-23T11:21:38.012Z,103770.72
2023-01-23T11:24:41.041Z,103776.56
2023-01-23T11:27:30.969Z,103776.78
2023-01-23T11:30:09.431Z,103772.97
2023-01-23T11:32:49.663Z,103776.66
2023-01-23T11:35:25.352Z,103771.94
2023-01-23T11:37:55.709Z,103776.13
2023-01-23T11:40:22.744Z,103771.03
2023-01-23T11:42:49.798Z,103762.41
2023-01-23T11:46:05.560Z,103766.69
2023-01-23T11:49:03.673Z,103774.53
2023-01-23T11:52:20.536Z,103762.41
2023-01-23T11:55:02.689Z,103761.50
2023-01-23T11:57:37.327Z,103751.59
2023-01-23T12:00:37.502Z,103746.31
2023-01-23T12:03:55.202Z,103749.03
2023-01-23T12:06:58.880Z,103741.59
2023-01-23T12:09:38.971Z,103723.97
2023-01-23T12:12:59.111Z,103734.41
2023-01-23T12:15:44.619Z,103736.31
2023-01-23T12:18:21.972Z,103719.22
2023-01-23T12:21:32.726Z,103740.69
2023-01-23T12:24:40.050Z,103734.06
2023-01-23T12:27:34.321Z,103734.28
2023-01-23T12:30:22.506Z,103737.22
2023-01-23T12:33:12.276Z,103735.75
2023-01-23T12:35:47.214Z,103730.03
2023-01-23T12:38:34.715Z,103741.38
2023-01-23T12:41:26.276Z,103729.00
2023-01-23T12:44:04.801Z,103729.47
2023-01-23T12:46:39.986Z,103728.66
2023-01-23T12:49:30.700Z,103733.03
2023-01-23T12:52:09.229Z,103729.56
2023-01-23T12:54:44.224Z,103738.00
2023-01-23T12:57:13.314Z,103733.72
2023-01-23T13:00:02.291Z,103739.69
2023-01-23T13:02:40.653Z,103741.47
2023-01-23T13:05:21.370Z,103745.06
2023-01-23T13:08:38.422Z,103741.47
2023-01-23T13:11:48.526Z,103737.78
2023-01-23T13:15:00.645Z,103745.75
2023-01-23T13:17:36.823Z,103740.38
2023-01-23T13:21:12.715Z,103735.97
2023-01-23T13:23:39.649Z,103738.47
2023-01-23T13:26:15.604Z,103736.75
2023-01-23T13:28:50.368Z,103741.94
2023-01-23T13:31:47.151Z,103747.91
2023-01-23T13:34:17.181Z,103738.47
2023-01-23T13:36:53.088Z,103754.06
2023-01-23T13:39:29.674Z,103748.81
2023-01-23T13:42:14.802Z,103758.25
2023-01-23T13:45:20.792Z,103753.53
2023-01-23T14:22:20.328Z,103766.13
2023-01-23T14:24:50.519Z,103771.28
2023-01-23T14:27:51.410Z,103769.25
2023-01-23T14:30:29.091Z,103769.94
2023-01-23T14:32:56.421Z,103772.06
2023-01-23T14:35:32.181Z,103767.34
2023-01-23T14:38:06.787Z,103770.16
2023-01-23T14:40:47.061Z,103768.59
2023-01-23T14:43:23.702Z,103771.06
2023-01-23T14:46:04.425Z,103759.13
2023-01-23T14:48:38.055Z,103777.91
2023-01-23T14:51:19.829Z,103779.69
2023-01-23T14:54:03.367Z,103782.25
2023-01-23T14:56:35.738Z,103779.44
2023-01-23T14:59:06.805Z,103782.91
2023-01-23T15:01:35.937Z,103780.56
2023-01-23T15:04:20.317Z,103782.38
2023-01-23T15:06:59.222Z,103786.03
2023-01-23T15:09:41.545Z,103774.81
2023-01-23T15:12:16.905Z,103778.38
2023-01-23T15:14:44.782Z,103782.59
2023-01-23T15:17:20.003Z,103779.34
2023-01-23T15:19:55.498Z,103793.88
2023-01-23T15:22:28.698Z,103785.25
2023-01-23T15:24:55.971Z,103781.88
2023-01-23T15:27:33.903Z,103790.09
2023-01-23T15:30:39.662Z,103791.09
2023-01-23T15:33:31.450Z,103797.41
2023-01-23T15:36:27.273Z,103786.19
2023-01-23T15:38:56.851Z,103787.78
2023-01-23T15:41:44.416Z,103792.41
2023-01-23T15:44:18.023Z,103779.72
2023-01-23T15:46:45.197Z,103784.47
2023-01-23T15:49:24.513Z,103781.22
2023-01-23T15:51:55.049Z,103769.16
2023-01-23T15:54:29.248Z,103793.22
2023-01-23T15:57:07.058Z,103788.97
2023-01-23T15:59:36.749Z,103784.78
2023-01-23T16:02:05.934Z,103772.91
2023-01-23T16:04:33.750Z,103777.31
2023-01-23T16:07:07.048Z,103775.47
2023-01-23T16:09:37.142Z,103792.81
2023-01-23T16:12:04.600Z,103783.38
2023-01-23T16:14:31.515Z,103782.47
2023-01-23T16:17:11.346Z,103772.81
2023-01-23T16:19:42.356Z,103779.88
2023-01-23T16:22:14.762Z,103784.25
2023-01-23T16:24:42.405Z,103781.81
2023-01-23T16:27:17.925Z,103782.69
2023-01-23T16:29:45.503Z,103783.72
2023-01-23T16:32:12.532Z,103782.13
2023-01-23T16:34:39.493Z,103784.06
2023-01-23T16:37:14.873Z,103785.06
2023-01-23T16:39:43.849Z,103787.41
2023-01-23T16:42:24.983Z,103780.34
2023-01-23T16:44:52.122Z,103786.41
2023-01-23T16:47:19.297Z,103798.56
2023-01-23T16:49:52.546Z,103788.22
2023-01-23T16:52:24.050Z,103787.28
2023-01-23T16:54:53.810Z,103785.63
2023-01-23T16:57:21.412Z,103783.03
2023-01-23T16:59:50.361Z,103782.25
2023-01-23T17:02:29.713Z,103777.97
2023-01-23T17:04:56.703Z,103782.13
2023-01-23T17:07:23.609Z,103785.50
2023-01-23T17:09:51.722Z,103797.88
2023-01-23T17:12:27.742Z,103787.50
2023-01-23T17:14:56.014Z,103806.41
2023-01-23T17:17:33.412Z,103795.16
2023-01-23T17:20:01.923Z,103789.44
2023-01-23T17:22:30.768Z,103802.56
2023-01-23T17:24:57.696Z,103798.19
2023-01-23T17:27:24.618Z,103804.25
2023-01-23T17:29:51.542Z,103800.44
2023-01-23T17:32:32.550Z,103800.16
2023-01-23T17:35:02.753Z,103806.94
2023-01-23T17:37:30.234Z,103801.19
2023-01-23T17:39:57.117Z,103809.16
2023-01-23T17:42:24.002Z,103814.47
2023-01-23T17:44:50.878Z,103810.41
2023-01-23T17:47:18.535Z,103805.66
2023-01-23T17:49:57.126Z,103804.44
2023-01-23T17:52:25.067Z,103813.50
2023-01-23T17:54:52.016Z,103819.03
2023-01-23T17:57:18.881Z,103816.09
2023-01-23T17:59:45.789Z,103811.34
2023-01-23T18:02:28.109Z,103823.00
2023-01-23T18:04:55.533Z,103841.06
2023-01-23T18:07:22.424Z,103834.44
2023-01-23T18:09:49.319Z,103831.75
2023-01-23T18:12:37.767Z,103834.72
2023-01-23T18:15:43.231Z,103830.25
2023-01-23T18:18:29.606Z,103840.28
2023-01-23T18:20:58.134Z,103830.75
2023-01-23T18:23:27.873Z,103827.38
2023-01-23T18:26:44.625Z,103832.72
2023-01-23T18:29:40.695Z,103830.81
2023-01-23T18:32:24.154Z,103829.25
2023-01-23T18:35:19.906Z,103821.00
2023-01-23T18:38:05.406Z,103831.94
2023-01-23T18:41:12.567Z,103833.44
2023-01-23T18:43:43.742Z,103837.28
2023-01-23T18:46:17.188Z,103838.44
2023-01-23T18:48:45.873Z,103830.03
2023-01-23T18:51:34.207Z,103833.38
2023-01-23T18:54:20.957Z,103844.63
2023-01-23T18:57:22.268Z,103838.66
2023-01-23T19:00:16.950Z,103834.03
2023-01-23T19:02:52.379Z,103841.91
2023-01-23T19:05:27.887Z,103838.53
2023-01-23T19:07:55.598Z,103833.81
2023-01-23T19:10:25.585Z,103844.56
2023-01-23T19:13:16.661Z,103846.78
2023-01-23T19:16:06.322Z,103833.03
2023-01-23T19:18:47.652Z,103839.97
2023-01-23T19:21:26.723Z,103849.53
2023-01-23T19:24:06.850Z,103853.78
2023-01-23T19:26:37.704Z,103849.94
2023-01-23T19:29:20.345Z,103861.69
2023-01-23T19:32:02.923Z,103853.47
2023-01-23T19:34:31.504Z,103857.38
2023-01-23T19:36:58.407Z,103855.44
2023-01-23T19:39:25.301Z,103863.03
2023-01-23T19:41:53.295Z,103860.22
2023-01-23T19:44:24.045Z,103866.16
2023-01-23T19:46:52.125Z,103864.47
2023-01-23T19:49:19.179Z,103866.03
2023-01-23T19:51:46.648Z,103874.78
2023-01-23T19:54:15.189Z,103871.44
2023-01-23T19:56:42.598Z,103892.19
2023-01-23T19:59:10.050Z,103897.09
2023-01-23T20:01:49.971Z,103899.56
2023-01-23T20:04:23.495Z,103898.00
2023-01-23T20:06:53.923Z,103896.84
2023-01-23T20:09:21.858Z,103890.81
2023-01-23T20:11:49.238Z,103896.06
2023-01-23T20:14:16.169Z,103892.84
2023-01-23T20:16:43.594Z,103895.69
2023-01-23T20:19:14.526Z,103891.56
2023-01-23T20:21:41.413Z,103889.09
2023-01-23T20:24:08.509Z,103889.09
2023-01-23T20:26:36.182Z,103889.31
2023-01-23T20:29:03.984Z,103883.50
2023-01-23T20:31:31.775Z,103881.97
2023-01-23T20:33:58.788Z,103877.63
2023-01-23T20:36:25.745Z,103886.91
2023-01-23T20:38:52.640Z,103885.22
2023-01-23T20:41:20.860Z,103875.94
2023-01-23T20:43:48.165Z,103882.91
2023-01-23T20:46:16.482Z,103883.97
2023-01-23T20:48:44.989Z,103888.63
2023-01-23T20:51:14.086Z,103892.38
2023-01-23T20:53:41.455Z,103893.16
2023-01-23T20:56:14.991Z,103882.72
2023-01-23T20:59:06.641Z,103890.28
2023-01-23T21:01:54.555Z,103887.06
2023-01-23T21:04:23.375Z,103874.56
2023-01-23T21:06:50.291Z,103884.47
2023-01-23T21:09:17.546Z,103885.25
2023-01-23T21:11:44.679Z,103900.97
2023-01-23T21:14:12.830Z,103895.06
2023-01-23T21:16:39.864Z,103901.13
2023-01-23T21:19:06.730Z,103893.78
2023-01-23T21:21:33.663Z,103904.47
2023-01-23T21:24:00.576Z,103889.63
2023-01-23T21:26:28.962Z,103894.44
2023-01-23T21:28:57.643Z,103894.31
2023-01-23T21:31:29.837Z,103887.34
2023-01-23T21:34:03.072Z,103876.38
2023-01-23T21:36:30.067Z,103882.03
2023-01-23T21:38:57.574Z,103871.06
2023-01-23T21:41:24.445Z,103865.25
2023-01-23T21:43:51.323Z,103865.38
2023-01-23T21:46:18.293Z,103865.38
2023-01-23T21:48:45.243Z,103877.50
2023-01-23T21:51:18.438Z,103892.19
2023-01-23T21:53:49.015Z,103887.94
2023-01-23T21:56:19.244Z,103875.06
2023-01-23T21:58:49.362Z,103872.19
2023-01-23T22:01:32.565Z,103885.38
2023-01-23T22:04:22.500Z,103886.13
2023-01-23T22:06:54.921Z,103888.84
2023-01-23T22:09:27.437Z,103894.75
2023-01-23T22:11:55.639Z,103897.25
2023-01-23T22:14:22.736Z,103900.47
2023-01-23T22:16:50.912Z,103907.03
2023-01-23T22:19:24.944Z,103899.84
2023-01-23T22:21:54.261Z,103895.59
2023-01-23T22:24:21.301Z,103910.16
2023-01-23T22:26:48.250Z,103913.41
2023-01-23T22:29:15.354Z,103916.63
2023-01-23T22:31:42.573Z,103929.28
2023-01-23T22:34:10.102Z,103914.16
2023-01-23T22:36:37.130Z,103913.00
2023-01-23T22:39:04.407Z,103908.75
2023-01-23T22:41:31.305Z,103914.03
2023-01-23T22:43:59.382Z,103908.22
2023-01-23T22:46:27.195Z,103904.75
2023-01-23T22:48:54.151Z,103902.28
2023-01-23T22:51:25.461Z,103910.91
2023-01-23T22:53:54.080Z,103904.88
2023-01-23T22:56:22.219Z,103911.84
2023-01-23T22:58:50.956Z,103891.22
2023-01-23T23:01:19.126Z,103903.19
2023-01-23T23:03:46.276Z,103900.34
2023-01-23T23:06:16.745Z,103899.47
2023-01-23T23:08:47.278Z,103898.31
2023-01-23T23:11:27.632Z,103908.75
2023-01-23T23:13:56.586Z,103899.31
2023-01-23T23:16:30.883Z,103896.75
2023-01-23T23:19:00.909Z,103902.03
2023-01-23T23:21:33.640Z,103907.19
2023-01-23T23:24:01.533Z,103901.16
2023-01-23T23:26:31.260Z,103893.50
2023-01-23T23:28:59.959Z,103902.19
2023-01-23T23:31:27.245Z,103906.56
2023-01-23T23:33:54.352Z,103905.75
2023-01-23T23:36:21.233Z,103909.13
2023-01-23T23:38:48.183Z,103905.66
2023-01-23T23:41:16.833Z,103900.34
2023-01-23T23:43:44.602Z,103906.41
2023-01-23T23:46:13.567Z,103912.50
2023-01-23T23:48:41.597Z,103912.59
2023-01-23T23:51:12.562Z,103918.66
2023-01-23T23:53:39.599Z,103918.41
2023-01-23T23:56:07.146Z,103917.28
2023-01-23T23:58:37.458Z,103915.44
